createdAt,value
2023-01-01T00:00:06.800Z,38.70
2023-01-01T00:02:37.137Z,38.67
2023-01-01T00:05:05.493Z,38.91
2023-01-01T00:07:33.458Z,38.75
2023-01-01T00:10:18.789Z,38.65
2023-01-01T00:12:46.618Z,38.37
2023-01-01T00:15:14.267Z,38.75
2023-01-01T00:17:43.256Z,38.36
2023-01-01T00:20:11.363Z,38.44
2023-01-01T00:22:55.913Z,38.19
2023-01-01T00:25:23.964Z,38.52
2023-01-01T00:27:51.890Z,38.21
2023-01-01T00:30:19.711Z,38.34
2023-01-01T00:32:55.018Z,37.94
2023-01-01T00:35:26.240Z,38.10
2023-01-01T00:37:56.076Z,38.37
2023-01-01T00:40:23.828Z,38.10
2023-01-01T00:42:51.817Z,38.37
2023-01-01T00:45:22.335Z,38.45
2023-01-01T00:47:52.011Z,38.09
2023-01-01T00:50:19.808Z,38.25
2023-01-01T00:52:48.985Z,38.41
2023-01-01T00:55:17.002Z,38.49
2023-01-01T00:57:44.836Z,38.12
2023-01-01T01:00:14.003Z,38.39
2023-01-01T01:02:41.877Z,38.28
2023-01-01T01:05:11.346Z,38.16
2023-01-01T01:07:39.851Z,38.15
2023-01-01T01:10:09.515Z,38.13
2023-01-01T01:12:37.411Z,37.97
2023-01-01T01:15:05.842Z,38.11
2023-01-01T01:17:34.723Z,37.74
2023-01-01T01:20:02.665Z,37.87
2023-01-01T01:22:31.759Z,37.75
2023-01-01T01:24:59.469Z,37.48
2023-01-01T01:27:27.076Z,38.02
2023-01-01T01:29:54.827Z,37.57
2023-01-01T01:32:24.495Z,37.32
2023-01-01T01:34:52.237Z,37.40
2023-01-01T01:37:19.927Z,37.12
2023-01-01T01:39:53.632Z,36.94
2023-01-01T01:42:23.093Z,36.72
2023-01-01T01:44:56.140Z,36.75
2023-01-01T01:47:27.293Z,36.93
2023-01-01T01:49:56.918Z,36.77
2023-01-01T01:52:25.089Z,36.75
2023-01-01T01:54:54.154Z,37.01
2023-01-01T01:57:21.790Z,36.94
2023-01-01T01:59:50.068Z,36.90
2023-01-01T02:02:20.032Z,36.99
2023-01-01T02:04:47.846Z,36.85
2023-01-01T02:07:15.710Z,37.15
2023-01-01T02:09:43.421Z,36.91
2023-01-01T02:12:12.544Z,36.91
2023-01-01T02:14:40.415Z,36.78
2023-01-01T02:17:09.914Z,36.96
2023-01-01T02:19:45.073Z,36.81
2023-01-01T02:22:15.955Z,36.96
2023-01-01T02:24:59.153Z,36.83
2023-01-01T02:27:30.117Z,36.61
2023-01-01T02:30:00.515Z,36.54
2023-01-01T02:32:29.064Z,36.76
2023-01-01T02:34:59.327Z,36.86
2023-01-01T02:37:27.077Z,36.34
2023-01-01T02:39:57.199Z,36.24
2023-01-01T02:42:25.850Z,36.33
2023-01-01T02:44:54.760Z,36.55
2023-01-01T02:47:23.836Z,36.39
2023-01-01T02:49:57.700Z,36.26
2023-01-01T02:52:43.767Z,36.32
2023-01-01T02:55:17.640Z,36.35
2023-01-01T02:57:47.779Z,36.50
2023-01-01T03:00:28.071Z,36.76
2023-01-01T03:03:10.255Z,36.40
2023-01-01T03:06:01.521Z,36.13
2023-01-01T03:08:32.174Z,36.53
2023-01-01T03:11:01.995Z,36.40
2023-01-01T03:13:33.831Z,36.34
2023-01-01T03:16:03.894Z,36.37
2023-01-01T03:18:34.939Z,36.38
2023-01-01T03:21:03.107Z,36.38
2023-01-01T03:23:32.765Z,36.20
2023-01-01T03:26:01.550Z,36.45
2023-01-01T03:28:30.996Z,36.46
2023-01-01T03:30:59.445Z,36.43
2023-01-01T03:33:30.000Z,36.65
2023-01-01T03:36:00.285Z,36.68
2023-01-01T03:38:30.850Z,36.86
2023-01-01T03:41:00.193Z,36.74
2023-01-01T03:43:31.430Z,36.90
2023-01-01T03:45:59.229Z,36.81
2023-01-01T03:48:27.162Z,36.95
2023-01-01T03:51:02.737Z,36.98
2023-01-01T03:53:35.374Z,37.02
2023-01-01T03:56:08.262Z,37.08
2023-01-01T03:58:37.814Z,36.96
2023-01-01T04:01:08.775Z,36.95
2023-01-01T04:03:36.509Z,36.96
2023-01-01T04:06:05.911Z,37.03
2023-01-01T04:08:33.912Z,37.08
2023-01-01T04:11:22.049Z,37.40
2023-01-01T04:13:49.936Z,37.69
2023-01-01T04:16:17.895Z,37.30
2023-01-01T04:18:45.725Z,37.30
2023-01-01T04:21:14.911Z,37.64
2023-01-01T04:23:42.770Z,37.29
2023-01-01T04:26:13.971Z,37.69
2023-01-01T04:28:42.164Z,37.90
2023-01-01T04:31:11.554Z,37.56
2023-01-01T04:33:39.424Z,38.16
2023-01-01T04:36:07.949Z,37.80
2023-01-01T04:38:37.655Z,37.78
2023-01-01T04:41:05.751Z,37.86
2023-01-01T04:43:33.647Z,38.02
2023-01-01T04:46:02.646Z,38.07
2023-01-01T04:48:30.731Z,37.98
2023-01-01T04:50:58.668Z,37.93
2023-01-01T04:53:26.582Z,38.27
2023-01-01T04:55:55.819Z,38.20
2023-01-01T04:58:24.060Z,38.37
2023-01-01T05:00:52.147Z,38.54
2023-01-01T05:03:19.897Z,38.23
2023-01-01T05:05:51.438Z,38.55
2023-01-01T05:08:19.400Z,38.63
2023-01-01T05:10:47.191Z,38.72
2023-01-01T05:13:16.286Z,38.69
2023-01-01T05:15:44.054Z,38.85
2023-01-01T05:18:12.216Z,38.88
2023-01-01T05:20:39.967Z,39.04
2023-01-01T05:23:07.826Z,39.03
2023-01-01T05:25:35.778Z,39.61
2023-01-01T05:28:03.543Z,39.44
2023-01-01T05:30:32.753Z,39.34
2023-01-01T05:33:00.396Z,39.36
2023-01-01T05:35:28.245Z,39.25
2023-01-01T05:37:56.094Z,39.75
2023-01-01T05:40:24.144Z,39.54
2023-01-01T05:42:52.137Z,39.87
2023-01-01T05:45:19.915Z,39.94
2023-01-01T05:47:49.143Z,39.93
2023-01-01T05:50:17.091Z,39.84
2023-01-01T05:52:44.970Z,40.13
2023-01-01T05:55:12.864Z,40.12
2023-01-01T05:57:40.792Z,40.23
2023-01-01T06:00:09.672Z,40.37
2023-01-01T06:02:37.556Z,40.22
2023-01-01T06:05:07.353Z,40.40
2023-01-01T06:10:09.910Z,40.57
2023-01-01T06:12:37.471Z,40.59
2023-01-01T06:15:05.863Z,40.40
2023-01-01T06:17:34.389Z,40.52
2023-01-01T06:20:02.085Z,40.56
2023-01-01T06:22:31.053Z,40.62
2023-01-01T06:24:58.747Z,41.07
2023-01-01T06:27:27.425Z,41.18
2023-01-01T06:29:55.286Z,41.36
2023-01-01T06:32:22.879Z,41.33
2023-01-01T06:34:50.503Z,41.31
2023-01-01T06:37:18.058Z,41.58
2023-01-01T06:39:47.198Z,41.40
2023-01-01T06:42:14.912Z,41.58
2023-01-01T06:44:42.462Z,41.63
2023-01-01T06:47:10.202Z,41.52
2023-01-01T06:49:37.775Z,41.68
2023-01-01T06:52:05.567Z,41.66
2023-01-01T06:54:33.130Z,41.70
2023-01-01T06:57:02.150Z,41.70
2023-01-01T06:59:29.721Z,41.94
2023-01-01T07:01:57.484Z,41.89
2023-01-01T07:04:25.196Z,42.09
2023-01-01T07:06:52.749Z,41.89
2023-01-01T07:09:20.305Z,42.12
2023-01-01T07:11:48.004Z,42.18
2023-01-01T07:14:16.913Z,42.19
2023-01-01T07:16:44.522Z,42.17
2023-01-01T07:19:12.122Z,42.23
2023-01-01T07:21:41.732Z,42.35
2023-01-01T07:24:11.388Z,42.36
2023-01-01T07:26:39.921Z,42.46
2023-01-01T07:29:08.849Z,42.64
2023-01-01T07:31:38.791Z,42.54
2023-01-01T07:34:06.505Z,42.84
2023-01-01T07:36:34.510Z,42.71
2023-01-01T07:39:05.145Z,43.28
2023-01-01T07:41:33.421Z,43.43
2023-01-01T07:44:01.242Z,43.45
2023-01-01T07:46:29.319Z,43.80
2023-01-01T07:48:58.457Z,43.84
2023-01-01T07:51:26.560Z,43.99
2023-01-01T07:53:54.474Z,44.13
2023-01-01T07:56:22.363Z,44.25
2023-01-01T07:58:50.266Z,44.50
2023-01-01T08:01:19.116Z,44.54
2023-01-01T08:03:51.320Z,45.04
2023-01-01T08:06:20.410Z,45.20
2023-01-01T08:08:48.236Z,45.67
2023-01-01T08:11:16.129Z,45.56
2023-01-01T08:13:43.833Z,45.77
2023-01-01T08:16:11.592Z,46.20
2023-01-01T08:18:39.438Z,46.31
2023-01-01T08:21:07.369Z,46.05
2023-01-01T08:23:36.577Z,46.54
2023-01-01T08:26:04.685Z,46.09
2023-01-01T08:28:32.684Z,46.40
2023-01-01T08:31:00.578Z,46.20
2023-01-01T08:33:29.477Z,46.13
2023-01-01T08:35:57.170Z,45.92
2023-01-01T08:38:25.026Z,45.87
2023-01-01T08:40:54.230Z,45.87
2023-01-01T08:43:22.044Z,45.87
2023-01-01T08:45:49.745Z,45.87
2023-01-01T08:48:17.684Z,45.86
2023-01-01T08:50:45.409Z,46.02
2023-01-01T08:53:13.799Z,45.81
2023-01-01T08:55:41.551Z,45.81
2023-01-01T08:58:10.764Z,45.78
2023-01-01T09:00:38.613Z,45.65
2023-01-01T09:03:06.496Z,45.70
2023-01-01T09:05:34.307Z,45.63
2023-01-01T09:08:02.029Z,45.67
2023-01-01T09:10:29.853Z,45.54
2023-01-01T09:12:57.621Z,45.46
2023-01-01T09:15:26.846Z,45.53
2023-01-01T09:17:54.784Z,45.57
2023-01-01T09:20:22.583Z,45.37
2023-01-01T09:22:50.671Z,45.61
2023-01-01T09:25:18.583Z,45.70
2023-01-01T09:27:46.509Z,45.57
2023-01-01T09:30:15.136Z,45.61
2023-01-01T09:32:44.342Z,45.25
2023-01-01T09:35:12.131Z,45.64
2023-01-01T09:37:39.981Z,45.57
2023-01-01T09:40:08.946Z,45.69
2023-01-01T09:42:38.267Z,45.73
2023-01-01T09:45:18.579Z,45.69
2023-01-01T09:47:51.398Z,45.79
2023-01-01T09:50:19.962Z,45.72
2023-01-01T09:52:51.806Z,45.54
2023-01-01T09:55:24.530Z,45.59
2023-01-01T09:57:52.216Z,45.52
2023-01-01T10:00:20.853Z,45.48
2023-01-01T10:03:08.677Z,45.34
2023-01-01T10:05:43.972Z,45.06
2023-01-01T10:08:22.976Z,45.36
2023-01-01T10:10:55.115Z,44.95
2023-01-01T10:13:24.673Z,45.20
2023-01-01T10:15:56.088Z,45.45
2023-01-01T10:18:27.303Z,45.36
2023-01-01T10:21:00.350Z,45.32
2023-01-01T10:23:29.255Z,45.31
2023-01-01T10:25:57.731Z,45.46
2023-01-01T10:28:28.151Z,45.67
2023-01-01T10:30:59.559Z,45.73
2023-01-01T10:33:29.530Z,45.60
2023-01-01T10:35:57.584Z,45.65
2023-01-01T10:38:34.508Z,45.77
2023-01-01T10:41:13.641Z,45.65
2023-01-01T10:43:45.631Z,45.96
2023-01-01T10:46:14.549Z,46.06
2023-01-01T10:48:43.731Z,45.84
2023-01-01T10:51:15.856Z,46.07
2023-01-01T10:53:44.056Z,46.40
2023-01-01T10:56:12.887Z,46.33
2023-01-01T10:58:45.049Z,46.22
2023-01-01T11:01:13.948Z,46.23
2023-01-01T11:03:56.028Z,46.05
2023-01-01T11:06:24.448Z,46.27
2023-01-01T11:08:53.347Z,46.25
2023-01-01T11:11:22.377Z,45.96
2023-01-01T11:13:53.485Z,46.07
2023-01-01T11:16:21.279Z,46.13
2023-01-01T11:18:49.050Z,46.15
2023-01-01T11:21:22.693Z,46.23
2023-01-01T11:23:50.990Z,46.46
2023-01-01T11:26:24.525Z,46.30
2023-01-01T11:29:03.318Z,46.07
2023-01-01T11:31:32.203Z,46.39
2023-01-01T11:34:03.697Z,46.17
2023-01-01T11:36:33.640Z,46.52
2023-01-01T11:39:07.845Z,46.75
2023-01-01T11:41:45.277Z,46.47
2023-01-01T11:44:13.385Z,46.62
2023-01-01T11:46:41.186Z,46.41
2023-01-01T11:49:14.452Z,46.49
2023-01-01T11:51:43.795Z,46.34
2023-01-01T11:54:22.132Z,46.46
2023-01-01T11:56:50.326Z,46.23
2023-01-01T11:59:18.531Z,46.25
2023-01-01T12:01:48.140Z,46.05
2023-01-01T12:04:18.992Z,46.29
2023-01-01T12:06:50.665Z,46.21
2023-01-01T12:09:20.424Z,46.16
2023-01-01T12:11:50.667Z,46.08
2023-01-01T12:14:20.479Z,46.22
2023-01-01T12:16:51.694Z,45.87
2023-01-01T12:19:22.017Z,46.05
2023-01-01T12:21:52.904Z,46.03
2023-01-01T12:24:20.824Z,46.02
2023-01-01T12:26:58.057Z,46.01
2023-01-01T12:29:39.251Z,46.33
2023-01-01T12:32:10.510Z,45.95
2023-01-01T12:34:59.669Z,45.92
2023-01-01T12:37:34.865Z,46.07
2023-01-01T12:40:32.281Z,45.67
2023-01-01T12:43:02.776Z,45.84
2023-01-01T12:46:03.402Z,45.81
2023-01-01T12:48:41.489Z,46.23
2023-01-01T12:51:14.865Z,45.92
2023-01-01T12:53:46.953Z,45.71
2023-01-01T12:56:22.576Z,45.55
2023-01-01T12:58:52.954Z,45.63
2023-01-01T13:01:22.524Z,45.96
2023-01-01T13:03:51.734Z,45.94
2023-01-01T13:06:26.521Z,45.89
2023-01-01T13:09:01.003Z,45.50
2023-01-01T13:11:29.124Z,45.68
2023-01-01T13:13:56.847Z,45.88
2023-01-01T13:16:34.940Z,45.37
2023-01-01T13:19:03.247Z,45.73
2023-01-01T13:21:32.569Z,45.74
2023-01-01T13:24:12.284Z,45.46
2023-01-01T13:26:41.102Z,45.25
2023-01-01T13:29:36.845Z,45.31
2023-01-01T13:32:08.411Z,45.44
2023-01-01T13:35:00.646Z,45.60
2023-01-01T13:37:33.001Z,45.47
2023-01-01T13:40:02.553Z,45.62
2023-01-01T13:42:52.409Z,45.50
2023-01-01T13:45:44.543Z,45.35
2023-01-01T13:48:17.588Z,46.00
2023-01-01T13:50:48.577Z,45.76
2023-01-01T13:53:28.102Z,45.51
2023-01-01T13:56:17.399Z,45.91
2023-01-01T13:59:05.750Z,46.18
2023-01-01T14:01:46.268Z,45.88
2023-01-01T14:04:18.726Z,45.98
2023-01-01T14:06:47.338Z,45.75
2023-01-01T14:09:17.440Z,46.05
2023-01-01T14:11:46.482Z,45.73
2023-01-01T14:14:25.214Z,45.86
2023-01-01T14:16:53.405Z,45.81
2023-01-01T14:19:21.123Z,45.62
2023-01-01T14:21:48.936Z,45.56
2023-01-01T14:24:17.522Z,45.51
2023-01-01T14:26:46.749Z,45.55
2023-01-01T14:29:17.896Z,45.30
2023-01-01T14:31:52.600Z,44.95
2023-01-01T14:34:24.596Z,45.12
2023-01-01T14:36:54.755Z,45.04
2023-01-01T14:39:27.935Z,44.97
2023-01-01T14:41:59.212Z,44.90
2023-01-01T14:44:29.441Z,45.01
2023-01-01T14:46:57.251Z,45.11
2023-01-01T14:49:27.389Z,45.03
2023-01-01T14:51:56.752Z,45.14
2023-01-01T14:54:26.239Z,44.74
2023-01-01T14:56:54.052Z,44.85
2023-01-01T14:59:24.982Z,45.05
2023-01-01T15:02:00.417Z,44.76
2023-01-01T15:04:28.534Z,44.76
2023-01-01T15:06:56.810Z,44.69
2023-01-01T15:09:24.633Z,44.85
2023-01-01T15:11:53.220Z,44.72
2023-01-01T15:14:32.938Z,44.54
2023-01-01T15:17:04.363Z,44.88
2023-01-01T15:19:32.144Z,44.94
2023-01-01T15:22:00.022Z,44.89
2023-01-01T15:24:29.320Z,45.00
2023-01-01T15:26:57.721Z,45.19
2023-01-01T15:29:28.889Z,45.26
2023-01-01T15:32:00.022Z,45.71
2023-01-01T15:34:29.614Z,45.59
2023-01-01T15:36:58.179Z,45.98
2023-01-01T15:39:26.038Z,45.94
2023-01-01T15:41:53.823Z,46.42
2023-01-01T15:44:26.991Z,46.82
2023-01-01T15:46:54.880Z,46.95
2023-01-01T15:49:28.109Z,47.44
2023-01-01T15:51:57.256Z,47.72
2023-01-01T15:54:24.966Z,47.91
2023-01-01T15:56:52.824Z,47.90
2023-01-01T15:59:27.439Z,48.46
2023-01-01T16:02:04.148Z,48.65
2023-01-01T16:04:33.571Z,48.77
2023-01-01T16:07:01.273Z,49.14
2023-01-01T16:09:29.021Z,49.13
2023-01-01T16:11:57.467Z,49.66
2023-01-01T16:14:25.376Z,49.57
2023-01-01T16:16:57.340Z,49.71
2023-01-01T16:19:25.319Z,50.05
2023-01-01T16:21:54.425Z,50.18
2023-01-01T16:24:23.036Z,50.44
2023-01-01T16:26:50.739Z,50.71
2023-01-01T16:29:18.448Z,50.98
2023-01-01T16:31:47.297Z,51.01
2023-01-01T16:34:15.478Z,51.33
2023-01-01T16:36:43.385Z,51.24
2023-01-01T16:39:12.629Z,51.82
2023-01-01T16:41:41.011Z,52.24
2023-01-01T16:44:10.124Z,52.56
2023-01-01T16:46:37.929Z,52.68
2023-01-01T16:49:05.739Z,53.57
2023-01-01T16:51:40.625Z,53.87
2023-01-01T16:54:12.479Z,53.86
2023-01-01T16:56:40.313Z,54.23
2023-01-01T16:59:08.064Z,53.87
2023-01-01T17:01:35.954Z,54.24
2023-01-01T17:04:03.801Z,54.95
2023-01-01T17:06:31.713Z,54.80
2023-01-01T17:09:00.034Z,54.86
2023-01-01T17:11:29.332Z,54.99
2023-01-01T17:13:58.441Z,55.55
2023-01-01T17:16:32.972Z,55.77
2023-01-01T17:19:21.690Z,55.79
2023-01-01T17:21:49.567Z,56.29
2023-01-01T17:24:17.487Z,56.55
2023-01-01T17:26:46.683Z,57.06
2023-01-01T17:29:18.688Z,56.69
2023-01-01T17:34:21.467Z,56.97
2023-01-01T17:36:49.500Z,57.32
2023-01-01T17:39:17.221Z,57.71
2023-01-01T17:41:46.233Z,57.73
2023-01-01T17:44:14.004Z,57.66
2023-01-01T17:46:44.079Z,58.29
2023-01-01T17:49:11.934Z,58.43
2023-01-01T17:51:40.065Z,58.73
2023-01-01T17:54:11.597Z,58.98
2023-01-01T17:56:39.177Z,59.34
2023-01-01T17:59:08.129Z,58.84
2023-01-01T18:01:35.937Z,59.11
2023-01-01T18:04:04.933Z,59.38
2023-01-01T18:06:36.072Z,59.65
2023-01-01T18:09:10.333Z,59.12
2023-01-01T18:11:37.989Z,59.06
2023-01-01T18:14:05.721Z,59.04
2023-01-01T18:16:35.695Z,59.39
2023-01-01T18:19:10.153Z,59.25
2023-01-01T18:21:37.756Z,59.37
2023-01-01T18:24:07.789Z,59.25
2023-01-01T18:26:35.701Z,58.87
2023-01-01T18:29:03.430Z,59.57
2023-01-01T18:31:34.379Z,59.55
2023-01-01T18:34:04.336Z,59.11
2023-01-01T18:36:32.939Z,59.12
2023-01-01T18:39:01.424Z,59.22
2023-01-01T18:41:51.308Z,59.07
2023-01-01T18:44:21.107Z,59.33
2023-01-01T18:46:52.627Z,59.72
2023-01-01T18:49:27.249Z,59.75
2023-01-01T18:51:59.231Z,59.98
2023-01-01T18:54:26.914Z,60.08
2023-01-01T18:57:01.584Z,60.42
2023-01-01T18:59:32.788Z,60.63
2023-01-01T19:02:00.470Z,61.01
2023-01-01T19:04:29.608Z,61.31
2023-01-01T19:06:57.653Z,61.59
2023-01-01T19:09:26.802Z,61.63
2023-01-01T19:12:18.200Z,62.02
2023-01-01T19:14:45.912Z,62.10
2023-01-01T19:17:16.308Z,62.22
2023-01-01T19:19:45.407Z,62.09
2023-01-01T19:22:18.273Z,61.81
2023-01-01T19:24:45.886Z,62.45
2023-01-01T19:27:15.706Z,62.07
2023-01-01T19:29:44.021Z,62.70
2023-01-01T19:32:11.594Z,62.00
2023-01-01T19:34:39.808Z,62.02
2023-01-01T19:37:09.208Z,62.00
2023-01-01T19:39:36.807Z,62.40
2023-01-01T19:42:05.186Z,62.47
2023-01-01T19:44:32.814Z,62.47
2023-01-01T19:47:01.110Z,61.93
2023-01-01T19:49:28.879Z,62.46
2023-01-01T19:51:56.469Z,62.22
2023-01-01T19:54:26.221Z,62.56
2023-01-01T19:56:53.770Z,62.65
2023-01-01T19:59:21.461Z,62.47
2023-01-01T20:02:09.983Z,62.31
2023-01-01T20:04:36.748Z,62.13
2023-01-01T20:07:04.410Z,61.71
2023-01-01T20:09:34.235Z,61.92
2023-01-01T20:12:02.018Z,61.96
2023-01-01T20:14:29.587Z,62.06
2023-01-01T20:16:57.670Z,61.71
2023-01-01T20:19:25.317Z,61.86
2023-01-01T20:22:10.237Z,61.27
2023-01-01T20:24:41.374Z,61.16
2023-01-01T20:27:11.030Z,61.11
2023-01-01T20:29:38.664Z,61.26
2023-01-01T20:32:12.253Z,60.96
2023-01-01T20:34:40.043Z,60.95
2023-01-01T20:37:25.270Z,60.68
2023-01-01T20:39:54.183Z,61.20
2023-01-01T20:42:21.828Z,60.92
2023-01-01T20:44:49.383Z,61.19
2023-01-01T20:47:16.969Z,61.12
2023-01-01T20:49:44.634Z,61.26
2023-01-01T20:52:12.223Z,60.72
2023-01-01T20:54:39.985Z,61.34
2023-01-01T20:57:08.927Z,61.44
2023-01-01T20:59:38.044Z,60.61
2023-01-01T21:02:06.639Z,60.72
2023-01-01T21:04:38.671Z,61.01
2023-01-01T21:07:07.096Z,60.51
2023-01-01T21:09:35.727Z,60.54
2023-01-01T21:12:03.295Z,60.47
2023-01-01T21:14:32.359Z,60.15
2023-01-01T21:17:00.038Z,59.87
2023-01-01T21:19:28.568Z,59.92
2023-01-01T21:21:56.568Z,60.17
2023-01-01T21:24:26.353Z,59.83
2023-01-01T21:26:54.919Z,59.14
2023-01-01T21:29:23.346Z,59.63
2023-01-01T21:31:53.856Z,59.25
2023-01-01T21:34:25.556Z,58.87
2023-01-01T21:36:53.636Z,58.89
2023-01-01T21:39:21.657Z,58.10
2023-01-01T21:41:49.363Z,57.90
2023-01-01T21:44:17.084Z,57.72
2023-01-01T21:46:54.222Z,57.15
2023-01-01T21:49:29.965Z,56.92
2023-01-01T21:51:58.124Z,57.21
2023-01-01T21:54:27.118Z,57.41
2023-01-01T21:56:57.283Z,57.56
2023-01-01T21:59:30.263Z,57.42
2023-01-01T22:02:16.457Z,57.79
2023-01-01T22:04:46.277Z,57.25
2023-01-01T22:10:12.539Z,57.56
2023-01-01T22:12:40.150Z,57.76
2023-01-01T22:15:24.323Z,57.59
2023-01-01T22:17:51.999Z,57.55
2023-01-01T22:20:23.671Z,56.98
2023-01-01T22:22:51.279Z,56.88
2023-01-01T22:25:24.009Z,56.50
2023-01-01T22:27:51.853Z,56.82
2023-01-01T22:30:37.278Z,55.75
2023-01-01T22:33:11.052Z,55.76
2023-01-01T22:35:39.983Z,55.51
2023-01-01T22:38:08.599Z,55.14
2023-01-01T22:40:37.456Z,54.17
2023-01-01T22:43:06.853Z,54.44
2023-01-01T22:45:34.481Z,54.43
2023-01-01T22:48:03.263Z,53.42
2023-01-01T22:50:30.870Z,53.87
2023-01-01T22:52:59.820Z,53.04
2023-01-01T22:55:27.345Z,53.33
2023-01-01T22:57:55.934Z,53.13
2023-01-01T23:00:23.513Z,52.67
2023-01-01T23:02:51.241Z,52.67
2023-01-01T23:05:18.853Z,52.49
2023-01-01T23:07:46.493Z,51.96
2023-01-01T23:10:15.427Z,51.87
2023-01-01T23:12:43.022Z,51.60
2023-01-01T23:15:29.224Z,51.35
2023-01-01T23:17:56.785Z,51.22
2023-01-01T23:20:24.441Z,51.17
2023-01-01T23:22:53.134Z,51.21
2023-01-01T23:25:22.190Z,50.89
2023-01-01T23:27:49.749Z,50.84
2023-01-01T23:30:17.424Z,50.99
2023-01-01T23:35:21.503Z,50.57
2023-01-01T23:37:49.073Z,50.62
2023-01-01T23:40:16.817Z,50.67
2023-01-01T23:42:45.833Z,50.49
2023-01-01T23:45:13.484Z,50.74
2023-01-01T23:47:41.317Z,50.23
2023-01-01T23:50:09.845Z,50.14
2023-01-01T23:52:37.422Z,50.33
2023-01-01T23:55:05.705Z,49.80
2023-01-01T23:57:33.297Z,50.38
